Time;durP1;ratioP1;P1;durP2;ratioP2;P2;SDS_P1;SDS_P2;PMS_P1;PMS_P2;Temp;Humidity;BMP_temperature;BMP_pressure;BME280_temperature;BME280_humidity;BME280_pressure;Samples;Min_cycle;Max_cycle;Signal;HPM_P1;HPM_P2
2023/08/10 00:00:12;;;;;;;6.18;4.50;;;;;;;17.07;79.18;97642.47;10375905;28;20060;-52
2023/08/10 00:05:11;;;;;;;5.85;4.13;;;;;;;16.97;79.79;97655.00;10374871;28;20483;-50
2023/08/10 00:10:11;;;;;;;5.13;4.10;;;;;;;17.03;80.44;97667.94;10376045;28;20123;-52
2023/08/10 00:15:10;;;;;;;6.25;3.88;;;;;;;16.93;79.92;97654.25;10375304;28;20064;-51
2023/08/10 00:20:10;;;;;;;4.18;3.50;;;;;;;17.03;79.51;97667.09;10375264;28;20061;-52
2023/08/10 00:25:09;;;;;;;4.60;4.10;;;;;;;17.04;79.03;97671.41;10368389;28;20077;-53
2023/08/10 00:30:09;;;;;;;4.43;4.00;;;;;;;17.03;78.98;97662.69;10374799;28;20055;-51
2023/08/10 00:35:08;;;;;;;4.63;4.07;;;;;;;16.97;79.27;97651.53;10375341;28;20072;-48
2023/08/10 00:40:12;;;;;;;4.30;3.63;;;;;;;17.05;79.16;97654.78;10374282;28;20106;-51
2023/08/10 00:45:11;;;;;;;4.85;4.00;;;;;;;16.79;78.62;97611.78;10374168;28;20061;-49
2023/08/10 00:50:10;;;;;;;5.20;4.00;;;;;;;17.09;78.74;97657.25;10374094;28;20487;-52
2023/08/10 00:55:10;;;;;;;4.88;4.05;;;;;;;16.88;78.66;97608.94;10373064;28;20129;-53
2023/08/10 01:00:10;;;;;;;4.28;3.45;;;;;;;17.16;78.63;97657.09;10374300;28;20072;-52
2023/08/10 01:05:12;;;;;;;4.13;3.30;;;;;;;17.04;79.24;97647.81;10374204;28;20065;-51
2023/08/10 01:10:48;;;;;;;4.25;3.78;;;;;;;16.73;79.82;97617.22;10374096;28;20483;-50
2023/08/10 01:15:51;;;;;;;4.32;3.92;;;;;;;16.29;81.00;97588.69;10376068;28;20489;-49
2023/08/10 01:20:53;;;;;;;5.40;4.45;;;;;;;16.70;81.06;97640.88;10382417;28;20073;-50
2023/08/10 01:25:52;;;;;;;5.55;4.00;;;;;;;16.66;80.69;97611.28;10382643;28;20075;-51
2023/08/10 01:30:52;;;;;;;7.60;4.30;;;;;;;16.78;80.63;97636.28;10381632;28;20522;-51
2023/08/10 01:35:51;;;;;;;4.35;3.58;;;;;;;16.82;80.43;97640.56;10381001;28;20068;-50
2023/08/10 01:40:51;;;;;;;5.00;4.45;;;;;;;16.95;80.42;97648.09;10380792;28;20125;-51
2023/08/10 01:45:54;;;;;;;8.45;5.55;;;;;;;17.00;80.52;97647.03;10381267;28;20068;-51
2023/08/10 01:50:56;;;;;;;5.47;4.28;;;;;;;17.08;80.52;97634.59;10380299;28;20522;-49
2023/08/10 01:55:56;;;;;;;4.97;4.40;;;;;;;16.99;81.17;97640.09;10380888;28;20073;-51
2023/08/10 02:00:55;;;;;;;7.22;4.47;;;;;;;17.03;81.43;97640.88;10384211;28;20068;-49
2023/08/10 02:05:54;;;;;;;9.40;4.80;;;;;;;17.11;81.43;97644.97;10383652;28;20099;-50
2023/08/10 02:10:53;;;;;;;8.57;5.35;;;;;;;16.86;83.99;97650.06;10383896;28;20059;-48
2023/08/10 02:15:52;;;;;;;6.32;5.60;;;;;;;16.90;84.19;97654.31;10384081;28;20087;-51
2023/08/10 02:20:51;;;;;;;6.40;5.47;;;;;;;16.99;84.03;97649.72;10382781;28;20025;-50
2023/08/10 02:25:50;;;;;;;;;;;;;;;16.90;84.69;97656.06;10382804;28;20068;-47
2023/08/10 02:30:49;;;;;;;9.40;5.33;;;;;;;16.48;85.95;97624.88;10382880;28;19912;-51
2023/08/10 02:35:48;;;;;;;7.55;5.18;;;;;;;16.34;85.72;97614.75;10383075;28;20051;-48
2023/08/10 02:40:47;;;;;;;6.65;4.80;;;;;;;16.60;85.48;97657.72;10382342;28;20113;-50
2023/08/10 02:45:47;;;;;;;;;;;;;;;16.65;84.86;97669.81;10382384;28;20112;-49
2023/08/10 02:50:45;;;;;;;7.70;5.80;;;;;;;16.68;84.55;97679.38;10382096;28;19948;-48
2023/08/10 02:55:44;;;;;;;7.30;4.90;;;;;;;16.70;84.41;97686.28;10381450;28;20060;-50
2023/08/10 03:00:43;;;;;;;6.50;4.85;;;;;;;16.73;84.64;97688.81;10377850;28;20029;-49
2023/08/10 03:05:42;;;;;;;;;;;;;;;16.75;nan;97701.88;10378787;28;20559;-53
2023/08/10 03:10:41;;;;;;;6.13;5.00;;;;;;;16.65;84.35;97693.41;10377636;28;20427;-53
2023/08/10 03:15:40;;;;;;;5.07;4.50;;;;;;;16.85;84.19;97715.63;10377562;28;20057;-52
2023/08/10 03:20:39;;;;;;;6.30;4.63;;;;;;;16.86;84.28;97723.47;10377097;28;20083;-51
2023/08/10 03:25:38;;;;;;;6.03;5.35;;;;;;;16.92;84.49;97739.00;10377272;28;20068;-50
2023/08/10 03:30:37;;;;;;;7.75;4.40;;;;;;;16.98;84.12;97752.84;10377172;28;20056;-51
2023/08/10 03:35:36;;;;;;;7.22;4.75;;;;;;;16.93;83.95;97739.84;10375786;28;20079;-50
2023/08/10 03:40:35;;;;;;;6.68;4.40;;;;;;;17.11;83.94;97756.88;10376055;28;20112;-50
2023/08/10 03:45:34;;;;;;;6.53;4.63;;;;;;;17.22;83.61;97762.69;10376119;28;20037;-50
2023/08/10 03:50:33;;;;;;;;;;;;;;;17.32;83.26;97763.28;10376612;28;20025;-51
2023/08/10 03:55:32;;;;;;;5.60;3.97;;;;;;;17.42;82.73;97777.84;10376225;28;20399;-50
2023/08/10 04:00:31;;;;;;;5.47;4.05;;;;;;;17.33;82.32;97754.50;10375433;28;20061;-50
2023/08/10 04:05:30;;;;;;;7.97;4.40;;;;;;;17.60;82.59;97789.59;10375488;28;20045;-49
2023/08/10 04:10:29;;;;;;;5.38;4.65;;;;;;;17.37;83.58;97750.03;10375674;28;20196;-52
2023/08/10 04:15:30;;;;;;;6.15;4.85;;;;;;;17.76;83.73;97808.38;10375094;28;20076;-52
2023/08/10 04:20:30;;;;;;;6.70;4.82;;;;;;;17.82;83.35;97810.84;10376102;28;20073;-52
2023/08/10 04:25:29;;;;;;;6.32;4.40;;;;;;;17.83;81.80;97806.47;10375488;28;20080;-48
2023/08/10 04:30:29;;;;;;;7.38;5.00;;;;;;;17.34;82.52;97757.09;10374580;28;20056;-51
2023/08/10 04:35:28;;;;;;;10.15;6.05;;;;;;;17.58;84.49;97809.75;10374885;28;20075;-51
2023/08/10 04:40:27;;;;;;;7.15;4.95;;;;;;;17.37;86.00;97807.75;10373908;28;20025;-49
2023/08/10 04:45:26;;;;;;;7.97;4.70;;;;;;;17.41;87.01;97804.13;10373556;28;20094;-51
2023/08/10 04:50:25;;;;;;;5.65;4.32;;;;;;;17.52;87.34;97829.19;10373308;28;20023;-48
2023/08/10 04:55:25;;;;;;;6.00;4.18;;;;;;;17.58;87.79;97830.75;10374583;28;20060;-51
2023/08/10 05:00:24;;;;;;;6.10;4.18;;;;;;;17.66;88.15;97841.03;10374428;28;20507;-49
2023/08/10 05:05:23;;;;;;;6.20;4.22;;;;;;;17.73;88.48;97838.22;10374011;28;20072;-51
2023/08/10 05:10:24;;;;;;;8.55;5.47;;;;;;;17.77;87.75;97850.34;10372283;28;20071;-52
2023/08/10 05:15:23;;;;;;;8.73;6.30;;;;;;;17.47;87.59;97811.81;10372359;28;20083;-51
2023/08/10 05:20:22;;;;;;;10.30;5.88;;;;;;;17.70;88.17;97853.16;10373353;28;20072;-50
2023/08/10 05:25:21;;;;;;;9.85;5.80;;;;;;;17.68;88.29;97861.09;10373469;28;20486;-53
2023/08/10 05:30:20;;;;;;;16.95;7.03;;;;;;;17.64;89.24;97863.84;10373585;28;20530;-47
2023/08/10 05:35:20;;;;;;;13.68;8.40;;;;;;;17.68;91.27;97866.34;10372011;28;20656;-50
2023/08/10 05:40:20;;;;;;;11.15;7.05;;;;;;;17.66;92.07;97852.41;10372952;28;20068;-49
2023/08/10 05:45:19;;;;;;;9.38;5.90;;;;;;;17.69;92.38;97860.19;10373549;28;20061;-50
2023/08/10 05:50:18;;;;;;;8.65;5.82;;;;;;;17.67;92.19;97864.63;10368746;28;20064;-50
2023/08/10 05:55:17;;;;;;;8.02;5.50;;;;;;;17.69;92.71;97868.06;10373142;28;20090;-48
2023/08/10 06:00:16;;;;;;;8.75;5.90;;;;;;;17.81;93.45;97861.63;10373517;28;20025;-51
2023/08/10 06:05:16;;;;;;;8.48;5.57;;;;;;;17.70;93.55;97833.03;10378884;28;20072;-51
2023/08/10 06:10:17;;;;;;;7.72;5.38;;;;;;;17.94;93.30;97864.75;10380318;28;20057;-50
2023/08/10 06:15:16;;;;;;;8.98;5.35;;;;;;;18.00;93.23;97864.59;10379569;28;20510;-51
2023/08/10 06:20:21;;;;;;;8.15;6.38;;;;;;;17.92;91.37;97869.22;10379712;28;20564;-52
2023/08/10 06:25:20;;;;;;;10.10;7.00;;;;;;;17.80;91.39;97877.41;10379793;28;20091;-52
2023/08/10 06:30:19;;;;;;;8.68;6.68;;;;;;;17.77;91.92;97871.34;10379192;28;20061;-49
2023/08/10 06:35:19;;;;;;;9.57;7.82;;;;;;;17.85;91.35;97867.69;10378919;28;20056;-49
2023/08/10 06:40:20;;;;;;;8.55;6.95;;;;;;;17.85;91.78;97870.31;10379947;28;20064;-51
2023/08/10 06:45:19;;;;;;;8.60;6.40;;;;;;;17.78;91.10;97877.47;10377646;28;20067;-51
2023/08/10 06:50:18;;;;;;;8.73;7.10;;;;;;;17.33;92.26;97814.81;10378505;28;20032;-52
2023/08/10 06:55:17;;;;;;;7.88;6.45;;;;;;;17.66;91.78;97875.16;10378598;28;20056;-50
2023/08/10 07:00:20;;;;;;;6.65;5.30;;;;;;;17.77;91.41;97875.75;10381490;28;20060;-50
2023/08/10 07:05:26;;;;;;;7.40;5.75;;;;;;;17.82;91.26;97865.13;10382409;28;20072;-51
2023/08/10 07:10:25;;;;;;;7.70;5.38;;;;;;;17.93;91.12;97873.56;10381046;28;20067;-52
2023/08/10 07:15:23;;;;;;;5.97;5.13;;;;;;;17.98;90.37;97876.91;10381174;28;20025;-50
2023/08/10 07:20:23;;;;;;;6.57;5.00;;;;;;;18.03;90.14;97871.53;10380901;28;20053;-52
2023/08/10 07:25:22;;;;;;;6.15;5.40;;;;;;;18.11;90.74;97882.69;10381025;28;20415;-50
2023/08/10 07:30:21;;;;;;;6.65;5.47;;;;;;;18.02;91.07;97865.41;10380612;28;20024;-51
2023/08/10 07:35:21;;;;;;;6.70;5.50;;;;;;;18.28;91.18;97882.16;10380405;28;20509;-47
2023/08/10 07:40:19;;;;;;;5.97;4.47;;;;;;;18.38;89.13;97879.19;10381152;28;20500;-50
2023/08/10 07:45:18;;;;;;;6.68;5.63;;;;;;;18.46;88.11;97884.25;10379982;28;20031;-49
2023/08/10 07:50:17;;;;;;;5.93;4.70;;;;;;;18.38;88.20;97883.59;10381018;28;20106;-50
2023/08/10 07:55:16;;;;;;;5.43;4.50;;;;;;;18.64;88.51;97895.06;10379812;28;20064;-50
2023/08/10 08:00:16;;;;;;;5.55;4.13;;;;;;;18.70;86.83;97894.94;10376531;28;20069;-49
2023/08/10 08:05:16;;;;;;;4.68;3.70;;;;;;;18.87;85.69;97891.75;10375605;28;20080;-51
2023/08/10 08:10:15;;;;;;;7.38;3.58;;;;;;;19.06;83.96;97870.97;10375303;28;20048;-50
2023/08/10 08:15:14;;;;;;;4.15;3.40;;;;;;;19.44;81.01;97896.84;10375110;28;20044;-50
2023/08/10 08:20:13;;;;;;;8.15;3.22;;;;;;;19.55;77.98;97900.88;10375936;28;20053;-49
2023/08/10 08:25:12;;;;;;;4.63;2.75;;;;;;;19.49;75.65;97901.97;10374366;28;20024;-51
2023/08/10 08:30:11;;;;;;;3.13;2.78;;;;;;;19.52;76.83;97911.53;10374216;28;20063;-48
2023/08/10 08:35:10;;;;;;;3.40;3.10;;;;;;;19.24;78.65;97875.63;10374283;28;20067;-50
2023/08/10 08:40:10;;;;;;;3.60;2.92;;;;;;;19.13;79.42;97885.63;10374192;28;20048;-51
2023/08/10 08:45:11;;;;;;;3.50;3.15;;;;;;;19.55;79.13;97921.94;10375157;28;20068;-49
2023/08/10 08:50:11;;;;;;;3.75;3.30;;;;;;;19.93;77.33;97925.03;10373714;28;20049;-49
2023/08/10 08:55:11;;;;;;;4.13;3.28;;;;;;;20.13;76.37;97924.31;10374690;28;20064;-51
2023/08/10 09:00:11;;;;;;;3.70;2.90;;;;;;;20.17;73.32;97932.03;10374506;28;20073;-51
2023/08/10 09:05:10;;;;;;;3.10;2.80;;;;;;;19.49;74.41;97930.06;10373895;28;20060;-51
2023/08/10 09:10:09;;;;;;;3.00;2.70;;;;;;;19.38;76.12;97941.78;10374263;28;20060;-50
2023/08/10 09:15:14;;;;;;;3.95;3.55;;;;;;;19.27;77.86;97929.91;10373805;28;20543;-50
2023/08/10 09:20:18;;;;;;;3.50;2.88;;;;;;;19.39;77.56;97924.22;10373464;28;20056;-51
2023/08/10 09:25:18;;;;;;;3.85;3.47;;;;;;;19.52;78.52;97932.59;10367668;28;20087;-50
2023/08/10 09:30:18;;;;;;;4.20;3.25;;;;;;;19.64;77.46;97935.66;10373307;28;20469;-48
2023/08/10 09:35:19;;;;;;;3.92;3.20;;;;;;;19.90;75.91;97933.03;10379033;28;20072;-50
2023/08/10 09:40:19;;;;;;;4.30;3.28;;;;;;;19.88;75.91;97940.97;10380973;28;20056;-51
2023/08/10 09:45:19;;;;;;;5.70;5.07;;;;;;;20.07;76.93;97938.53;10381482;28;20065;-50
2023/08/10 09:50:18;;;;;;;4.90;4.00;;;;;;;20.22;76.58;97922.19;10381425;28;20069;-50
2023/08/10 09:55:17;;;;;;;5.25;3.15;;;;;;;20.17;74.70;97939.94;10381368;28;20068;-50
2023/08/10 10:00:18;;;;;;;4.57;3.40;;;;;;;20.29;74.40;97936.00;10383453;28;20036;-51
2023/08/10 10:05:21;;;;;;;4.07;3.00;;;;;;;20.50;74.35;97942.28;10383871;28;20420;-51
2023/08/10 10:10:20;;;;;;;4.78;3.58;;;;;;;20.50;74.48;97937.84;10383142;28;20071;-50
2023/08/10 10:15:21;;;;;;;5.65;3.00;;;;;;;20.35;73.74;97929.63;10383946;28;20045;-48
2023/08/10 10:20:20;;;;;;;6.43;2.50;;;;;;;19.89;70.76;97936.59;10383684;28;20064;-50
2023/08/10 10:25:20;;;;;;;3.05;1.98;;;;;;;19.75;72.42;97939.72;10383301;28;20488;-51
2023/08/10 10:30:22;;;;;;;3.53;2.35;;;;;;;20.03;70.88;97939.59;10382864;28;20037;-51
2023/08/10 10:35:32;;;;;;;4.07;2.50;;;;;;;20.29;70.03;97928.09;10382597;28;20035;-51
2023/08/10 10:40:31;;;;;;;3.15;2.05;;;;;;;20.38;67.80;97937.44;10383063;28;20423;-50
2023/08/10 10:45:44;;;;;;;3.10;2.33;;;;;;;20.73;68.64;97937.88;10381775;28;20440;-48
2023/08/10 10:50:43;;;;;;;3.70;2.13;;;;;;;20.74;66.37;97929.06;10361573;28;20326;-50
2023/08/10 10:55:48;;;;;;;3.88;2.45;;;;;;;20.78;68.94;97928.03;10382568;28;20388;-50
2023/08/10 11:00:47;;;;;;;4.47;2.40;;;;;;;20.97;67.55;97928.16;10378715;28;20060;-52
2023/08/10 11:05:46;;;;;;;2.85;2.15;;;;;;;21.23;65.50;97914.78;10377691;28;20057;-50
2023/08/10 11:10:48;;;;;;;2.20;2.00;;;;;;;21.38;65.44;97909.75;10377992;28;20483;-51
2023/08/10 11:15:47;;;;;;;2.20;1.98;;;;;;;21.36;61.70;97920.41;10376563;28;20064;-50
2023/08/10 11:20:48;;;;;;;3.60;2.40;;;;;;;21.47;61.67;97933.13;10377499;28;20067;-51
2023/08/10 11:25:50;;;;;;;3.85;2.30;;;;;;;21.48;61.44;97930.44;10377574;28;20068;-51
2023/08/10 11:30:49;;;;;;;5.00;2.50;;;;;;;21.78;60.43;97932.72;10377462;28;20061;-51
2023/08/10 11:35:50;;;;;;;4.47;2.85;;;;;;;21.53;60.34;97933.75;10377477;28;20573;-53
2023/08/10 11:40:50;;;;;;;3.45;2.60;;;;;;;21.39;59.25;97925.56;10376919;28;20474;-50
2023/08/10 11:45:49;;;;;;;4.90;2.35;;;;;;;21.53;59.43;97923.19;10376922;28;20071;-51
2023/08/10 11:50:58;;;;;;;5.07;2.90;;;;;;;21.46;58.78;97889.19;10376662;28;20056;-55
2023/08/10 11:55:57;;;;;;;5.88;2.60;;;;;;;21.88;57.72;97918.16;10376247;28;20065;-53
2023/08/10 12:00:57;;;;;;;3.17;2.30;;;;;;;22.18;56.21;97917.75;10375503;28;20041;-53
2023/08/10 12:05:59;;;;;;;4.78;2.58;;;;;;;22.36;56.32;97916.88;10375678;28;20083;-51
2023/08/10 12:11:04;;;;;;;2.50;2.15;;;;;;;22.37;56.45;97894.81;10383183;28;20055;-51
2023/08/10 12:16:03;;;;;;;4.00;2.47;;;;;;;22.04;55.29;97888.41;10376982;28;20784;-52
2023/08/10 12:21:02;;;;;;;4.57;2.63;;;;;;;22.21;55.72;97901.75;10376683;28;20134;-51
2023/08/10 12:26:01;;;;;;;4.30;2.53;;;;;;;22.03;56.81;97873.50;10376450;28;20407;-49
2023/08/10 12:31:05;;;;;;;4.03;2.25;;;;;;;22.34;54.75;97904.66;10370584;28;20079;-50
2023/08/10 12:36:04;;;;;;;3.53;2.20;;;;;;;22.28;54.90;97904.97;10373308;28;20083;-50
2023/08/10 12:41:03;;;;;;;4.88;2.45;;;;;;;22.54;55.35;97895.81;10375875;28;20056;-51
2023/08/10 12:46:02;;;;;;;3.92;2.53;;;;;;;22.98;54.59;97898.16;10376033;28;20040;-50
2023/08/10 12:51:01;;;;;;;2.80;2.33;;;;;;;23.42;52.49;97892.44;10375021;28;20475;-50
2023/08/10 12:56:01;;;;;;;5.47;2.70;;;;;;;23.81;50.50;97839.16;10374192;28;20719;-49
2023/08/10 13:01:00;;;;;;;3.38;2.45;;;;;;;24.55;49.59;97885.59;10375138;28;20071;-51
2023/08/10 13:05:59;;;;;;;2.83;2.30;;;;;;;24.70;50.77;97886.53;10377257;28;20056;-52
2023/08/10 13:10:58;;;;;;;7.72;3.03;;;;;;;24.52;49.86;97887.53;10376143;28;20040;-51
2023/08/10 13:15:57;;;;;;;2.78;2.30;;;;;;;24.55;49.54;97890.03;10376863;28;20025;-51
2023/08/10 13:20:56;;;;;;;3.00;2.15;;;;;;;24.72;49.46;97889.09;10375524;28;20029;-53
2023/08/10 13:25:55;;;;;;;4.57;2.55;;;;;;;24.58;48.20;97884.56;10380337;28;20454;-51
2023/08/10 13:30:54;;;;;;;5.57;2.92;;;;;;;24.59;49.48;97879.19;10383615;28;20037;-51
2023/08/10 13:35:53;;;;;;;3.15;2.50;;;;;;;24.64;49.44;97874.47;10385487;28;20033;-53
2023/08/10 13:40:52;;;;;;;4.28;2.20;;;;;;;24.84;47.62;97873.31;10381340;28;20052;-51
2023/08/10 13:45:51;;;;;;;14.10;3.38;;;;;;;24.41;47.97;97880.19;10390649;28;20055;-51
2023/08/10 13:50:51;;;;;;;7.07;2.63;;;;;;;24.53;50.45;97868.03;10379790;28;20062;-51
2023/08/10 13:55:50;;;;;;;3.33;2.38;;;;;;;24.76;49.28;97870.25;10377491;28;20106;-52
2023/08/10 14:00:50;;;;;;;9.07;2.75;;;;;;;24.73;48.03;97881.06;10374374;28;20111;-51
2023/08/10 14:05:49;;;;;;;3.33;2.53;;;;;;;24.63;47.61;97862.13;10377248;28;20528;-49
2023/08/10 14:10:48;;;;;;;2.70;2.38;;;;;;;24.15;48.15;97873.63;10368535;28;20036;-52
2023/08/10 14:15:47;;;;;;;5.82;2.80;;;;;;;24.42;49.23;97864.19;10373828;28;20036;-53
2023/08/10 14:20:46;;;;;;;3.58;2.50;;;;;;;24.86;48.52;97867.94;10378371;28;20064;-52
2023/08/10 14:25:45;;;;;;;3.35;2.45;;;;;;;24.42;48.87;97866.84;10379700;28;20060;-51
2023/08/10 14:30:44;;;;;;;5.00;2.60;;;;;;;24.58;48.92;97866.00;10385511;28;20075;-49
2023/08/10 14:35:43;;;;;;;4.03;2.60;;;;;;;24.49;47.90;97872.66;10380263;28;20071;-52
2023/08/10 14:40:42;;;;;;;3.58;2.55;;;;;;;24.35;48.30;97865.47;10403000;28;20097;-52
2023/08/10 14:45:41;;;;;;;3.40;2.40;;;;;;;24.32;49.28;97870.94;10413945;28;20060;-52
2023/08/10 14:50:41;;;;;;;6.20;2.58;;;;;;;24.29;49.76;97868.47;10382613;28;20107;-52
2023/08/10 14:55:40;;;;;;;2.75;2.50;;;;;;;24.46;49.50;97862.22;10372985;28;20487;-52
2023/08/10 15:00:39;;;;;;;3.50;2.33;;;;;;;24.31;48.82;97858.63;10377294;28;20423;-51
2023/08/10 15:05:38;;;;;;;9.80;2.90;;;;;;;24.04;48.49;97830.00;10382969;28;20049;-50
2023/08/10 15:10:36;;;;;;;5.53;2.97;;;;;;;24.15;49.40;97865.69;10378122;28;20446;-47
2023/08/10 15:15:36;;;;;;;3.13;2.50;;;;;;;24.11;49.64;97874.75;10376813;28;20113;-51
2023/08/10 15:20:34;;;;;;;3.95;2.50;;;;;;;23.35;49.88;97771.84;10373964;28;20072;-52
2023/08/10 15:25:33;;;;;;;5.07;2.70;;;;;;;23.81;50.04;97868.31;10377983;28;20028;-50
2023/08/10 15:30:32;;;;;;;4.18;2.40;;;;;;;23.64;49.54;97871.88;10373481;28;20107;-51
2023/08/10 15:35:32;;;;;;;4.45;2.50;;;;;;;23.61;50.59;97871.19;10380343;28;20028;-51
2023/08/10 15:40:32;;;;;;;3.20;2.40;;;;;;;23.58;51.54;97880.16;10375264;28;20065;-50
2023/08/10 15:45:31;;;;;;;4.45;2.63;;;;;;;23.35;52.14;97893.66;10376424;28;20068;-50
2023/08/10 15:50:30;;;;;;;7.72;2.70;;;;;;;23.25;52.93;97897.72;10376289;28;20063;-51
2023/08/10 15:55:28;;;;;;;4.10;2.83;;;;;;;22.96;52.61;97907.94;10375706;28;20120;-50
2023/08/10 16:00:27;;;;;;;4.32;2.58;;;;;;;22.18;53.96;97904.53;10375614;28;20102;-48
2023/08/10 16:05:27;;;;;;;4.13;2.72;;;;;;;21.58;53.66;97925.63;10374909;28;20917;-50
2023/08/10 16:10:26;;;;;;;2.58;2.20;;;;;;;20.99;53.79;97916.59;10375821;28;20483;-50
2023/08/10 16:15:25;;;;;;;3.17;2.47;;;;;;;21.02;54.05;97924.38;10375307;28;20039;-52
2023/08/10 16:20:25;;;;;;;5.28;2.40;;;;;;;21.12;54.92;97923.13;10374999;28;20029;-51
2023/08/10 16:25:24;;;;;;;4.57;2.70;;;;;;;21.13;56.39;97935.38;10375307;28;20095;-52
2023/08/10 16:30:23;;;;;;;3.72;2.85;;;;;;;21.30;56.38;97939.13;10375273;28;20136;-53
2023/08/10 16:35:22;;;;;;;3.70;2.83;;;;;;;21.36;57.36;97936.25;10374565;28;20039;-51
2023/08/10 16:40:21;;;;;;;3.92;2.90;;;;;;;21.38;58.03;97944.94;10374963;28;20079;-49
2023/08/10 16:45:20;;;;;;;5.70;2.92;;;;;;;21.37;58.34;97945.88;10373625;28;20431;-51
2023/08/10 16:50:19;;;;;;;6.57;3.25;;;;;;;21.10;57.66;97951.34;10374455;28;20040;-53
2023/08/10 16:55:18;;;;;;;6.53;3.00;;;;;;;20.88;56.48;97955.75;10374797;28;20064;-52
2023/08/10 17:00:18;;;;;;;4.70;3.00;;;;;;;20.66;56.14;97956.59;10373954;28;20072;-50
2023/08/10 17:05:17;;;;;;;5.57;3.38;;;;;;;20.75;56.98;97957.13;10373404;28;20520;-51
2023/08/10 17:10:16;;;;;;;6.50;3.80;;;;;;;20.76;57.49;97965.00;10373033;28;20067;-52
2023/08/10 17:15:15;;;;;;;7.80;4.28;;;;;;;20.70;58.30;97952.03;10373546;28;20562;-50
2023/08/10 17:20:14;;;;;;;7.95;3.50;;;;;;;20.54;59.39;97967.59;10373322;28;20550;-52
2023/08/10 17:25:13;;;;;;;6.55;3.10;;;;;;;20.28;60.28;97964.13;10373875;28;20053;-51
2023/08/10 17:30:12;;;;;;;3.55;2.70;;;;;;;20.04;61.20;97967.66;10372885;28;20033;-53
2023/08/10 17:35:11;;;;;;;5.13;3.10;;;;;;;19.86;61.75;97972.66;10372783;28;20052;-51
2023/08/10 17:40:10;;;;;;;3.67;2.50;;;;;;;19.80;62.06;97991.28;10372969;28;20021;-49
2023/08/10 17:45:09;;;;;;;4.35;2.90;;;;;;;19.71;63.13;97986.34;10372856;28;20087;-50
2023/08/10 17:50:09;;;;;;;4.68;2.83;;;;;;;19.63;63.76;97983.13;10373515;28;20072;-50
2023/08/10 17:55:09;;;;;;;3.70;3.10;;;;;;;19.56;63.75;97982.47;10374162;28;20069;-52
2023/08/10 18:00:10;;;;;;;4.63;2.67;;;;;;;19.61;63.26;97995.47;10383629;28;20076;-49
2023/08/10 18:05:09;;;;;;;5.15;3.00;;;;;;;19.48;64.83;98004.66;10382260;28;20044;-50
2023/08/10 18:10:09;;;;;;;6.85;3.25;;;;;;;19.27;66.45;97986.00;10383804;28;20040;-52
2023/08/10 18:15:09;;;;;;;4.82;3.17;;;;;;;19.39;67.45;98019.84;10383486;28;20037;-51
2023/08/10 18:20:08;;;;;;;5.75;3.55;;;;;;;19.29;67.37;98015.78;10383930;28;20056;-52
2023/08/10 18:25:08;;;;;;;6.50;3.75;;;;;;;19.45;68.23;98030.16;10383227;28;20071;-50
2023/08/10 18:30:07;;;;;;;8.93;3.90;;;;;;;19.49;68.23;98037.97;10382712;28;20057;-52
2023/08/10 18:35:07;;;;;;;6.55;3.40;;;;;;;19.55;68.69;98035.13;10382582;28;20487;-51
2023/08/10 18:40:08;;;;;;;8.85;3.50;;;;;;;19.57;68.74;98035.97;10382404;28;20024;-52
2023/08/10 18:45:07;;;;;;;8.85;3.67;;;;;;;19.60;69.29;98049.03;10382342;28;20048;-52
2023/08/10 18:50:07;;;;;;;5.88;3.95;;;;;;;19.55;70.30;98061.44;10381976;28;20029;-52
2023/08/10 18:55:08;;;;;;;7.93;3.63;;;;;;;19.53;70.99;98055.38;10382709;28;20055;-52
2023/08/10 19:00:07;;;;;;;4.55;3.38;;;;;;;19.46;72.00;98059.97;10379657;28;20068;-51
2023/08/10 19:05:07;;;;;;;5.47;3.38;;;;;;;19.44;72.15;98060.03;10377873;28;20075;-51
2023/08/10 19:10:08;;;;;;;6.50;3.05;;;;;;;19.41;72.38;98060.09;10377514;28;20068;-50
2023/08/10 19:15:07;;;;;;;4.80;2.58;;;;;;;19.36;72.19;98062.03;10377919;28;20064;-51
2023/08/10 19:20:07;;;;;;;3.47;2.80;;;;;;;19.35;72.21;98070.84;10377125;28;20067;-49
2023/08/10 19:25:06;;;;;;;5.43;2.70;;;;;;;19.33;72.02;98075.28;10377034;28;20499;-51
2023/08/10 19:30:06;;;;;;;4.25;3.05;;;;;;;19.26;72.56;98068.50;10376853;28;20064;-51
2023/08/10 19:35:06;;;;;;;4.90;2.65;;;;;;;19.26;72.30;98073.75;10376694;28;20072;-50
2023/08/10 19:40:08;;;;;;;7.60;3.25;;;;;;;19.18;72.58;98074.00;10375639;28;20068;-52
2023/08/10 19:45:08;;;;;;;7.15;3.08;;;;;;;18.98;72.42;98066.72;10377209;28;20489;-49
2023/08/10 19:50:07;;;;;;;4.32;2.65;;;;;;;18.82;73.22;98068.06;10376341;28;20060;-50
2023/08/10 19:55:09;;;;;;;6.40;3.20;;;;;;;18.68;73.11;98078.09;10375965;28;20068;-52
2023/08/10 20:00:12;;;;;;;7.70;4.88;;;;;;;18.45;74.97;98062.97;10375252;28;20087;-52
2023/08/10 20:05:12;;;;;;;9.00;4.50;;;;;;;18.43;75.51;98086.63;10375528;28;20091;-52
2023/08/10 20:10:12;;;;;;;5.22;4.13;;;;;;;18.30;76.38;98082.66;10376097;28;20076;-49
2023/08/10 20:15:11;;;;;;;5.35;3.10;;;;;;;17.83;76.18;98016.50;10374954;28;20522;-50
2023/08/10 20:20:13;;;;;;;7.15;3.67;;;;;;;17.89;76.13;98055.69;10373950;28;20060;-51
2023/08/10 20:25:14;;;;;;;4.40;3.38;;;;;;;17.91;79.25;98081.00;10373967;28;20072;-49
2023/08/10 20:30:15;;;;;;;8.40;3.30;;;;;;;17.74;79.68;98078.78;10353542;28;20510;-49
2023/08/10 20:35:17;;;;;;;5.28;3.17;;;;;;;17.65;80.52;98086.88;10374615;28;20056;-50
2023/08/10 20:40:17;;;;;;;10.18;3.30;;;;;;;17.71;80.71;98086.72;10374412;28;20511;-51
2023/08/10 20:45:16;;;;;;;11.52;3.50;;;;;;;17.72;80.43;98082.34;10373818;28;20061;-49
2023/08/10 20:50:15;;;;;;;6.60;2.90;;;;;;;17.73;80.38;98082.31;10374099;28;20448;-51
2023/08/10 20:55:14;;;;;;;7.15;3.20;;;;;;;17.69;80.20;98066.66;10374134;28;20565;-51
2023/08/10 21:00:13;;;;;;;8.35;3.13;;;;;;;17.83;79.82;98071.63;10373709;28;20049;-51
2023/08/10 21:05:13;;;;;;;4.32;2.80;;;;;;;17.84;79.53;98075.94;10373877;28;20076;-50
2023/08/10 21:10:15;;;;;;;6.45;3.35;;;;;;;17.74;78.97;98075.28;10373542;28;20025;-52
2023/08/10 21:15:14;;;;;;;7.45;3.63;;;;;;;17.71;79.66;98086.72;10374012;28;20067;-50
2023/08/10 21:20:15;;;;;;;4.90;3.00;;;;;;;17.50;79.47;98066.25;10373090;28;20076;-51
2023/08/10 21:25:14;;;;;;;7.10;3.08;;;;;;;17.41;80.68;98079.59;10373108;28;20053;-51
2023/08/10 21:30:13;;;;;;;3.60;2.58;;;;;;;17.24;81.86;98087.81;10376368;28;20107;-52
2023/08/10 21:35:12;;;;;;;4.45;3.10;;;;;;;17.09;82.77;98092.50;10381559;28;20033;-52
2023/08/10 21:40:12;;;;;;;9.45;3.40;;;;;;;17.05;82.77;98090.88;10381070;28;20460;-51
2023/08/10 21:45:11;;;;;;;7.38;2.97;;;;;;;17.14;82.58;98089.78;10381386;28;20075;-50
2023/08/10 21:50:10;;;;;;;3.47;2.95;;;;;;;17.24;82.62;98093.06;10380947;28;20025;-52
2023/08/10 21:55:09;;;;;;;6.18;3.20;;;;;;;17.30;82.76;98095.56;10381689;28;20067;-50
2023/08/10 22:00:14;;;;;;;7.45;3.58;;;;;;;17.35;83.17;98089.34;10380571;28;20558;-51
2023/08/10 22:05:13;;;;;;;5.50;3.05;;;;;;;17.45;83.53;98091.72;10380692;28;20080;-52
2023/08/10 22:10:12;;;;;;;6.20;3.50;;;;;;;17.45;83.45;98086.47;10380145;28;20079;-49
2023/08/10 22:15:11;;;;;;;6.70;4.13;;;;;;;17.46;83.65;98090.84;10380025;28;20387;-52
2023/08/10 22:20:10;;;;;;;8.13;3.50;;;;;;;17.45;83.47;98089.97;10379546;28;20085;-52
2023/08/10 22:25:09;;;;;;;5.97;3.20;;;;;;;17.46;82.75;98080.34;10380387;28;20069;-52
2023/08/10 22:30:13;;;;;;;5.80;3.10;;;;;;;17.48;82.19;98083.78;10379453;28;20056;-50
2023/08/10 22:35:12;;;;;;;5.32;3.00;;;;;;;17.45;82.12;98078.59;10378925;28;20064;-49
2023/08/10 22:40:11;;;;;;;7.30;3.53;;;;;;;17.38;81.84;98062.16;10378420;28;20107;-53
2023/08/10 22:45:11;;;;;;;7.20;3.20;;;;;;;17.54;81.19;98086.25;10378295;28;20029;-48
2023/08/10 22:50:13;;;;;;;5.65;3.42;;;;;;;17.52;81.55;98085.47;10378736;28;20060;-49
2023/08/10 22:55:12;;;;;;;6.68;3.70;;;;;;;17.51;81.80;98084.56;10378298;28;20097;-51
2023/08/10 23:00:13;;;;;;;7.47;3.80;;;;;;;17.50;81.64;98079.38;10381222;28;20053;-51
2023/08/10 23:05:12;;;;;;;7.15;3.50;;;;;;;17.44;81.41;98072.50;10381102;28;20056;-50
2023/08/10 23:10:11;;;;;;;8.50;3.53;;;;;;;17.40;81.60;98075.22;10381056;28;20029;-52
2023/08/10 23:15:10;;;;;;;9.13;3.80;;;;;;;17.32;81.40;98080.66;10380811;28;20029;-51